Time;durP1;ratioP1;P1;durP2;ratioP2;P2;SDS_P1;SDS_P2;PMS_P1;PMS_P2;Temp;Humidity;BMP_temperature;BMP_pressure;BME280_temperature;BME280_humidity;BME280_pressure;Samples;Min_cycle;Max_cycle;Signal;HPM_P1;HPM_P2
2023/09/21 00:01:39;;;;;;;3.60;2.20;;;;;18.10;99709.00;;;;4917108;29;20229;-70
2023/09/21 00:04:26;;;;;;;4.40;2.47;;;;;18.10;99710.00;;;;4924887;28;20708;-71
2023/09/21 00:07:13;;;;;;;4.27;2.40;;;;;18.10;99712.00;;;;4920392;29;20381;-72
2023/09/21 00:09:59;;;;;;;3.40;2.60;;;;;18.00;99711.00;;;;4923523;29;20799;-71
2023/09/21 00:12:46;;;;;;;4.73;2.43;;;;;18.00;99708.00;;;;4917505;29;20238;-69
2023/09/21 00:15:33;;;;;;;4.60;2.30;;;;;18.20;99695.00;;;;4924119;29;20236;-67
2023/09/21 00:18:22;;;;;;;4.57;2.33;;;;;18.10;99701.00;;;;4919747;28;20281;-70
2023/09/21 00:21:08;;;;;;;4.17;2.30;;;;;18.10;99698.00;;;;4920347;28;20249;-69
2023/09/21 00:23:55;;;;;;;3.53;2.30;;;;;18.20;99697.00;;;;4918487;29;20405;-71
2023/09/21 00:26:47;;;;;;;5.97;2.57;;;;;18.20;99683.00;;;;4921952;28;20228;-71
2023/09/21 00:29:35;;;;;;;3.53;2.50;;;;;18.30;99685.00;;;;4926316;29;20233;-71
2023/09/21 00:32:22;;;;;;;5.27;2.43;;;;;18.40;99671.00;;;;4923768;29;20236;-70
2023/09/21 00:35:12;;;;;;;4.37;2.53;;;;;18.30;99672.00;;;;4913747;29;20399;-66
2023/09/21 00:37:58;;;;;;;4.87;2.17;;;;;18.30;99673.00;;;;4927805;29;20717;-67
2023/09/21 00:40:44;;;;;;;7.33;2.57;;;;;18.20;99668.00;;;;4915668;29;20240;-70
2023/09/21 00:43:30;;;;;;;2.40;2.20;;;;;18.20;99667.00;;;;4918223;29;20278;-69
2023/09/21 00:46:18;;;;;;;6.47;2.50;;;;;18.20;99663.00;;;;4923143;28;20726;-70
2023/09/21 00:49:06;;;;;;;2.97;2.10;;;;;18.10;99666.00;;;;4917482;28;20754;-68
2023/09/21 00:51:55;;;;;;;4.50;2.43;;;;;18.20;99651.00;;;;4917471;29;20362;-70
2023/09/21 00:54:42;;;;;;;4.17;2.27;;;;;18.20;99639.00;;;;4919230;28;20288;-71
2023/09/21 00:57:29;;;;;;;2.70;2.17;;;;;18.10;99635.00;;;;4923666;29;20225;-70
2023/09/21 01:00:16;;;;;;;3.80;2.63;;;;;18.10;99631.00;;;;4926480;29;20296;-70
2023/09/21 01:03:12;;;;;;;4.40;2.50;;;;;18.00;99634.00;;;;4921432;29;20232;-70
2023/09/21 01:05:59;;;;;;;3.10;2.30;;;;;17.90;99628.00;;;;4922076;28;20801;-69
2023/09/21 01:08:47;;;;;;;3.07;2.30;;;;;17.90;99633.00;;;;4919305;29;20228;-71
2023/09/21 01:11:37;;;;;;;2.83;2.40;;;;;17.90;99628.00;;;;4922762;29;20233;-68
2023/09/21 01:14:23;;;;;;;3.50;2.23;;;;;17.80;99616.00;;;;4918967;28;20594;-71
2023/09/21 01:17:10;;;;;;;3.33;2.57;;;;;17.80;99619.00;;;;4919939;29;20224;-70
2023/09/21 01:19:57;;;;;;;4.93;2.43;;;;;17.90;99625.00;;;;4911108;28;20742;-70
2023/09/21 01:22:46;;;;;;;3.43;2.40;;;;;17.80;99610.00;;;;4922062;29;20224;-70
2023/09/21 01:25:34;;;;;;;4.67;2.30;;;;;17.80;99613.00;;;;4920984;28;20224;-67
2023/09/21 01:28:22;;;;;;;3.80;2.20;;;;;17.80;99620.00;;;;4922170;29;20265;-70
2023/09/21 01:31:12;;;;;;;3.53;2.20;;;;;17.80;99612.00;;;;4919391;29;20585;-69
2023/09/21 01:34:00;;;;;;;3.70;2.30;;;;;17.90;99603.00;;;;4919106;28;20232;-70
2023/09/21 01:36:46;;;;;;;2.63;2.07;;;;;18.00;99600.00;;;;4916673;29;20248;-71
2023/09/21 01:39:33;;;;;;;4.30;2.70;;;;;18.10;99600.00;;;;4920900;29;20240;-70
2023/09/21 01:42:20;;;;;;;4.57;2.50;;;;;18.00;99590.00;;;;4915896;29;20373;-70
2023/09/21 01:45:13;;;;;;;4.07;2.30;;;;;18.00;99594.00;;;;4919223;29;20654;-69
2023/09/21 01:48:00;;;;;;;4.23;2.10;;;;;18.00;99584.00;;;;4922110;29;20232;-66
2023/09/21 01:50:50;;;;;;;3.47;2.10;;;;;18.00;99581.00;;;;4922210;29;20320;-68
2023/09/21 01:53:37;;;;;;;3.43;2.17;;;;;17.90;99586.00;;;;4922138;29;20224;-71
2023/09/21 01:56:23;;;;;;;2.77;2.07;;;;;18.00;99583.00;;;;4916994;29;20318;-69
2023/09/21 01:59:10;;;;;;;4.70;2.30;;;;;18.00;99575.00;;;;4916689;29;20348;-69
2023/09/21 02:01:57;;;;;;;4.97;2.13;;;;;18.00;99566.00;;;;4914273;29;20238;-71
2023/09/21 02:04:43;;;;;;;3.90;2.50;;;;;18.10;99566.00;;;;4921182;29;20232;-70
2023/09/21 02:07:30;;;;;;;4.33;2.30;;;;;18.00;99553.00;;;;4917974;29;20277;-68
2023/09/21 02:10:17;;;;;;;3.43;2.30;;;;;18.10;99553.00;;;;4912940;29;20229;-71
2023/09/21 02:13:05;;;;;;;8.13;2.30;;;;;18.00;99551.00;;;;4918343;29;20749;-70
2023/09/21 02:15:53;;;;;;;3.60;2.10;;;;;18.00;99542.00;;;;4925977;29;20305;-71
2023/09/21 02:18:39;;;;;;;2.37;2.10;;;;;17.90;99545.00;;;;4926618;29;20730;-69
2023/09/21 02:21:26;;;;;;;2.23;1.93;;;;;17.80;99549.00;;;;4925222;29;20244;-70
2023/09/21 02:24:12;;;;;;;3.07;2.40;;;;;17.80;99532.00;;;;4912576;29;20296;-71
2023/09/21 02:26:59;;;;;;;2.57;2.00;;;;;17.70;99524.00;;;;4922124;29;20284;-69
2023/09/21 02:29:45;;;;;;;4.33;2.27;;;;;17.70;99530.00;;;;4916655;29;20230;-70
2023/09/21 02:32:34;;;;;;;3.10;2.37;;;;;17.60;99543.00;;;;4922110;29;20237;-69
2023/09/21 02:35:23;;;;;;;5.40;2.30;;;;;17.60;99534.00;;;;4919434;29;20237;-71
2023/09/21 02:38:11;;;;;;;3.37;2.20;;;;;17.50;99532.00;;;;4917640;29;20593;-72
2023/09/21 02:40:57;;;;;;;2.90;2.30;;;;;17.50;99529.00;;;;4915778;29;20241;-71
2023/09/21 02:43:45;;;;;;;2.70;2.30;;;;;17.50;99527.00;;;;4921341;29;20232;-70
2023/09/21 02:46:32;;;;;;;3.73;2.40;;;;;17.50;99517.00;;;;4929401;28;20256;-71
2023/09/21 02:49:19;;;;;;;2.87;2.50;;;;;17.40;99513.00;;;;4929185;28;20357;-70
2023/09/21 02:52:06;;;;;;;3.63;2.17;;;;;17.50;99517.00;;;;4915724;29;20778;-70
2023/09/21 02:54:53;;;;;;;3.03;2.20;;;;;17.40;99509.00;;;;4916550;28;20256;-68
2023/09/21 02:57:39;;;;;;;2.97;2.30;;;;;17.40;99516.00;;;;4924485;28;20232;-70
2023/09/21 03:00:29;;;;;;;7.10;2.50;;;;;17.30;99501.00;;;;4912990;29;20317;-70
2023/09/21 03:03:17;;;;;;;4.00;2.37;;;;;17.30;99497.00;;;;4916082;29;20863;-71
2023/09/21 03:06:06;;;;;;;7.00;2.27;;;;;17.40;99494.00;;;;4914024;28;20241;-71
2023/09/21 03:08:52;;;;;;;3.07;2.00;;;;;17.40;99500.00;;;;4914366;29;20242;-70
2023/09/21 03:11:39;;;;;;;3.20;2.10;;;;;17.30;99488.00;;;;4919681;29;20786;-70
2023/09/21 03:14:28;;;;;;;4.93;2.20;;;;;17.30;99484.00;;;;4919124;29;20713;-67
2023/09/21 03:17:15;;;;;;;3.37;2.20;;;;;17.30;99477.00;;;;4918698;29;20967;-66
2023/09/21 03:20:13;;;;;;;3.43;2.00;;;;;17.40;99482.00;;;;4915187;29;20237;-71
2023/09/21 03:23:05;;;;;;;2.90;2.00;;;;;17.50;99478.00;;;;4925422;29;20236;-71
2023/09/21 03:25:53;;;;;;;6.13;1.90;;;;;17.50;99476.00;;;;4922010;29;20315;-70
2023/09/21 03:28:42;;;;;;;3.03;2.00;;;;;17.40;99473.00;;;;4923175;29;20233;-70
2023/09/21 03:31:29;;;;;;;4.03;2.10;;;;;17.40;99465.00;;;;4921172;29;20233;-69
2023/09/21 03:34:16;;;;;;;2.47;1.90;;;;;17.40;99462.00;;;;4916967;29;20233;-71
2023/09/21 03:37:03;;;;;;;3.37;2.33;;;;;17.30;99465.00;;;;4921692;28;20604;-70
2023/09/21 03:39:50;;;;;;;2.40;2.03;;;;;17.30;99460.00;;;;4921706;29;20741;-70
2023/09/21 03:42:37;;;;;;;3.37;2.03;;;;;17.30;99458.00;;;;4926982;29;20620;-71
2023/09/21 03:45:25;;;;;;;3.13;2.30;;;;;17.20;99455.00;;;;4924248;29;20313;-70
2023/09/21 03:48:13;;;;;;;3.40;2.17;;;;;17.10;99447.00;;;;4919314;29;20258;-70
2023/09/21 03:51:03;;;;;;;3.43;2.13;;;;;17.10;99446.00;;;;4914443;29;20241;-71
2023/09/21 03:53:50;;;;;;;3.00;2.10;;;;;17.00;99443.00;;;;4925686;28;20611;-70
2023/09/21 03:56:39;;;;;;;3.00;2.13;;;;;17.00;99441.00;;;;4920902;29;20725;-71
2023/09/21 03:59:26;;;;;;;3.07;2.10;;;;;17.00;99440.00;;;;4923525;29;20233;-70
2023/09/21 04:02:13;;;;;;;6.93;2.20;;;;;17.00;99436.00;;;;4918574;28;20246;-71
2023/09/21 04:05:09;;;;;;;4.07;2.20;;;;;16.90;99437.00;;;;4916697;29;20314;-71
2023/09/21 04:07:56;;;;;;;5.90;2.20;;;;;16.90;99426.00;;;;4923350;29;20251;-71
2023/09/21 04:10:42;;;;;;;3.40;2.10;;;;;16.90;99422.00;;;;4923385;29;20250;-70
2023/09/21 04:13:30;;;;;;;3.27;2.20;;;;;16.90;99434.00;;;;4928655;29;20762;-71
2023/09/21 04:16:16;;;;;;;4.33;2.30;;;;;16.80;99431.00;;;;4929229;28;20237;-71
2023/09/21 04:19:05;;;;;;;4.60;2.23;;;;;16.80;99418.00;;;;4927393;29;20321;-66
2023/09/21 04:21:51;;;;;;;3.27;2.13;;;;;16.80;99418.00;;;;4925078;29;20321;-69
2023/09/21 04:24:38;;;;;;;3.93;2.30;;;;;16.80;99417.00;;;;4924496;28;20369;-70
2023/09/21 04:27:25;;;;;;;5.83;2.20;;;;;16.80;99421.00;;;;4928457;29;20264;-69
2023/09/21 04:30:15;;;;;;;3.20;2.30;;;;;16.80;99409.00;;;;4919835;29;20262;-70
2023/09/21 04:33:01;;;;;;;5.97;2.43;;;;;16.90;99405.00;;;;4923751;29;20710;-70
2023/09/21 04:35:47;;;;;;;3.40;2.03;;;;;17.00;99403.00;;;;4922347;29;20300;-70
2023/09/21 04:38:34;;;;;;;2.80;2.20;;;;;17.10;99412.00;;;;4920388;28;20767;-69
2023/09/21 04:41:21;;;;;;;4.40;2.10;;;;;17.10;99404.00;;;;4925143;29;20717;-68
2023/09/21 04:44:08;;;;;;;3.83;2.30;;;;;17.20;99400.00;;;;4917523;29;20225;-70
2023/09/21 04:46:56;;;;;;;2.60;1.97;;;;;17.20;99404.00;;;;4920484;29;20253;-68
2023/09/21 04:49:42;;;;;;;5.57;2.47;;;;;17.10;99401.00;;;;4924072;28;20717;-71
2023/09/21 04:52:31;;;;;;;2.83;2.30;;;;;17.20;99405.00;;;;4924825;29;20240;-70
2023/09/21 04:55:18;;;;;;;3.53;2.10;;;;;17.20;99398.00;;;;4919891;28;20232;-65
2023/09/21 04:58:05;;;;;;;3.63;2.23;;;;;17.20;99403.00;;;;4918537;29;20233;-70
2023/09/21 05:00:51;;;;;;;3.93;2.20;;;;;17.20;99396.00;;;;4919908;29;20232;-70
2023/09/21 05:03:39;;;;;;;3.60;2.23;;;;;17.20;99400.00;;;;4916947;29;20312;-69
2023/09/21 05:06:26;;;;;;;3.87;2.40;;;;;17.20;99392.00;;;;4925299;29;20244;-68
2023/09/21 05:09:14;;;;;;;6.73;2.30;;;;;17.20;99398.00;;;;4915095;29;20233;-70
2023/09/21 05:12:03;;;;;;;3.70;2.13;;;;;17.10;99388.00;;;;4924301;29;20236;-70
2023/09/21 05:14:50;;;;;;;5.00;2.30;;;;;17.10;99383.00;;;;4915086;29;20265;-70
2023/09/21 05:17:37;;;;;;;2.87;2.10;;;;;17.10;99385.00;;;;4911869;28;20313;-70
2023/09/21 05:20:25;;;;;;;4.63;2.30;;;;;17.10;99392.00;;;;4914293;29;20228;-68
2023/09/21 05:23:12;;;;;;;4.70;2.23;;;;;17.00;99385.00;;;;4912738;29;20730;-68
2023/09/21 05:25:58;;;;;;;3.30;2.30;;;;;17.00;99393.00;;;;4918569;29;20734;-72
2023/09/21 05:28:46;;;;;;;3.87;2.33;;;;;17.00;99399.00;;;;4918883;29;20237;-70
2023/09/21 05:31:35;;;;;;;3.40;2.23;;;;;17.00;99389.00;;;;4913130;29;22080;-70
2023/09/21 05:34:21;;;;;;;4.07;2.60;;;;;17.00;99398.00;;;;4916689;29;20237;-68
2023/09/21 05:37:09;;;;;;;3.20;2.40;;;;;17.00;99397.00;;;;4921424;29;20233;-69
2023/09/21 05:39:55;;;;;;;5.20;2.30;;;;;17.00;99410.00;;;;4917563;29;20312;-68
2023/09/21 05:42:44;;;;;;;5.03;2.47;;;;;17.00;99401.00;;;;4919877;28;20275;-70
2023/09/21 05:45:30;;;;;;;5.60;2.30;;;;;17.00;99410.00;;;;4909219;29;20317;-70
2023/09/21 05:48:19;;;;;;;7.57;2.70;;;;;17.00;99408.00;;;;4915999;29;20228;-68
2023/09/21 05:51:06;;;;;;;6.57;2.50;;;;;17.00;99397.00;;;;4926392;28;20374;-72
2023/09/21 05:53:53;;;;;;;3.13;2.40;;;;;17.10;99399.00;;;;4922324;29;20726;-69
2023/09/21 05:56:40;;;;;;;4.27;2.20;;;;;17.10;99407.00;;;;4917131;29;20233;-72
2023/09/21 05:59:27;;;;;;;4.03;2.10;;;;;17.00;99403.00;;;;4916608;29;21037;-73
2023/09/21 06:02:15;;;;;;;4.40;2.20;;;;;17.00;99400.00;;;;4919265;29;20362;-71
2023/09/21 06:05:01;;;;;;;3.93;2.60;;;;;16.90;99391.00;;;;4924026;29;20369;-70
2023/09/21 06:07:48;;;;;;;3.83;2.50;;;;;17.00;99405.00;;;;4923309;28;20240;-71
2023/09/21 06:10:35;;;;;;;5.60;2.50;;;;;17.10;99401.00;;;;4906336;29;20232;-73
2023/09/21 06:13:25;;;;;;;7.40;2.67;;;;;17.20;99404.00;;;;4920481;28;20603;-71
2023/09/21 06:16:11;;;;;;;3.03;2.33;;;;;17.30;99404.00;;;;4915455;29;20241;-72
2023/09/21 06:18:57;;;;;;;3.40;2.37;;;;;17.40;99396.00;;;;4926357;29;20853;-72
2023/09/21 06:21:45;;;;;;;4.37;2.57;;;;;17.40;99397.00;;;;4918293;29;20236;-72
2023/09/21 06:24:32;;;;;;;3.43;1.97;;;;;17.40;99401.00;;;;4920088;29;20237;-72
2023/09/21 06:27:19;;;;;;;6.00;2.40;;;;;17.50;99405.00;;;;4918544;29;20238;-72
2023/09/21 06:30:07;;;;;;;4.27;2.80;;;;;17.60;99406.00;;;;4915497;29;20236;-74
2023/09/21 06:32:55;;;;;;;3.10;2.37;;;;;17.70;99407.00;;;;4916341;29;20237;-74
2023/09/21 06:35:42;;;;;;;4.20;2.47;;;;;17.80;99407.00;;;;4914703;28;20233;-74
2023/09/21 06:38:28;;;;;;;6.13;2.40;;;;;17.90;99399.00;;;;4917463;29;20233;-74
2023/09/21 06:41:15;;;;;;;7.50;2.40;;;;;18.00;99404.00;;;;4929150;29;20228;-74
2023/09/21 06:44:02;;;;;;;5.33;2.57;;;;;18.10;99396.00;;;;4915011;29;20316;-74
2023/09/21 06:46:50;;;;;;;2.70;2.40;;;;;18.30;99399.00;;;;4918643;29;20229;-74
2023/09/21 06:49:36;;;;;;;2.60;2.13;;;;;18.40;99391.00;;;;4928808;28;20738;-74
2023/09/21 06:52:22;;;;;;;3.70;2.50;;;;;18.60;99382.00;;;;4928038;29;20726;-74
2023/09/21 06:55:09;;;;;;;4.77;2.13;;;;;18.70;99388.00;;;;4921401;28;20251;-74
2023/09/21 06:57:56;;;;;;;3.57;2.30;;;;;18.90;99385.00;;;;4917998;28;20241;-72
2023/09/21 07:00:44;;;;;;;4.00;2.40;;;;;19.00;99374.00;;;;4921100;28;20260;-72
2023/09/21 07:03:32;;;;;;;5.00;2.57;;;;;19.10;99375.00;;;;4925186;28;20772;-72
2023/09/21 07:06:19;;;;;;;4.40;2.30;;;;;19.20;99369.00;;;;4921089;29;20260;-69
2023/09/21 07:09:05;;;;;;;3.20;2.10;;;;;19.40;99368.00;;;;4917672;29;20276;-73
2023/09/21 07:11:52;;;;;;;4.03;2.30;;;;;19.70;99361.00;;;;4912955;29;20245;-70
2023/09/21 07:14:39;;;;;;;4.00;2.30;;;;;19.80;99356.00;;;;4930275;29;20236;-72
2023/09/21 07:17:26;;;;;;;3.20;2.40;;;;;19.80;99361.00;;;;4918193;28;20312;-70
2023/09/21 07:20:14;;;;;;;3.33;2.10;;;;;19.90;99365.00;;;;4912350;29;20281;-65
2023/09/21 07:23:01;;;;;;;2.90;2.17;;;;;19.90;99364.00;;;;4918760;29;20245;-71
2023/09/21 07:25:47;;;;;;;6.60;2.30;;;;;19.90;99363.00;;;;4918612;29;20246;-71
2023/09/21 07:28:33;;;;;;;3.37;2.37;;;;;19.90;99360.00;;;;4922491;29;20228;-68
2023/09/21 07:31:20;;;;;;;3.90;2.00;;;;;20.00;99367.00;;;;4916347;29;20234;-71
2023/09/21 07:34:08;;;;;;;4.63;2.23;;;;;20.00;99370.00;;;;4920554;29;20238;-71
2023/09/21 07:36:56;;;;;;;6.90;2.60;;;;;20.20;99361.00;;;;4917574;29;20256;-71
2023/09/21 07:39:42;;;;;;;3.13;2.40;;;;;20.20;99366.00;;;;4926290;29;20282;-69
2023/09/21 07:42:30;;;;;;;4.33;2.20;;;;;20.30;99376.00;;;;4913437;29;20309;-70
2023/09/21 07:45:16;;;;;;;4.43;2.20;;;;;20.40;99372.00;;;;4920651;29;20977;-67
2023/09/21 07:48:05;;;;;;;5.07;2.87;;;;;20.40;99370.00;;;;4926580;29;20369;-71
2023/09/21 07:50:55;;;;;;;5.73;2.80;;;;;20.50;99367.00;;;;4913871;29;20315;-70
2023/09/21 07:53:41;;;;;;;4.10;3.07;;;;;20.70;99388.00;;;;4927367;28;20769;-71
2023/09/21 07:56:31;;;;;;;2.57;2.13;;;;;20.80;99385.00;;;;4913844;29;20851;-69
2023/09/21 07:59:18;;;;;;;6.73;2.60;;;;;20.90;99384.00;;;;4919911;29;20307;-70
2023/09/21 08:02:04;;;;;;;3.07;2.13;;;;;21.00;99381.00;;;;4918845;29;20303;-70
2023/09/21 08:04:50;;;;;;;3.80;2.00;;;;;21.10;99367.00;;;;4914524;29;20322;-70
2023/09/21 08:07:38;;;;;;;2.90;2.10;;;;;21.20;99375.00;;;;4913881;29;20240;-71
2023/09/21 08:10:26;;;;;;;2.60;2.10;;;;;21.30;99386.00;;;;4916456;29;20231;-71
2023/09/21 08:13:13;;;;;;;4.83;2.30;;;;;21.40;99372.00;;;;4925381;29;20235;-74
2023/09/21 08:15:59;;;;;;;2.63;2.20;;;;;21.40;99379.00;;;;4911236;29;20240;-71
2023/09/21 08:18:47;;;;;;;5.33;2.33;;;;;21.40;99375.00;;;;4923417;29;20753;-72
2023/09/21 08:21:34;;;;;;;3.73;2.27;;;;;21.40;99376.00;;;;4923998;28;20812;-70
2023/09/21 08:24:22;;;;;;;5.67;2.40;;;;;21.40;99379.00;;;;4912789;29;20248;-71
2023/09/21 08:27:09;;;;;;;3.77;2.50;;;;;21.30;99383.00;;;;4924993;28;20231;-69
2023/09/21 08:29:57;;;;;;;3.63;2.43;;;;;21.30;99386.00;;;;4918069;29;20239;-72
2023/09/21 08:32:43;;;;;;;4.43;2.23;;;;;21.30;99381.00;;;;4917246;29;20231;-72
2023/09/21 08:35:31;;;;;;;5.17;2.40;;;;;21.40;99382.00;;;;4915391;29;20235;-72
2023/09/21 08:38:17;;;;;;;2.43;2.23;;;;;21.60;99392.00;;;;4916702;29;20284;-71
2023/09/21 08:41:05;;;;;;;2.90;2.30;;;;;21.80;99393.00;;;;4922328;29;20233;-72
2023/09/21 08:43:54;;;;;;;3.07;2.00;;;;;22.10;99392.00;;;;4922876;29;20788;-71
2023/09/21 08:46:41;;;;;;;2.87;2.30;;;;;22.20;99395.00;;;;4918669;29;21001;-73
2023/09/21 08:49:29;;;;;;;5.03;2.17;;;;;22.10;99395.00;;;;4918128;29;20630;-74
2023/09/21 08:52:17;;;;;;;3.80;2.40;;;;;22.10;99391.00;;;;4915003;29;20259;-72
2023/09/21 08:55:06;;;;;;;2.90;2.50;;;;;22.00;99397.00;;;;4923150;28;20237;-73
2023/09/21 08:57:56;;;;;;;3.03;2.13;;;;;22.10;99396.00;;;;4917397;29;20939;-72
2023/09/21 09:00:43;;;;;;;2.90;2.30;;;;;22.20;99395.00;;;;4915090;29;20283;-71
2023/09/21 09:03:31;;;;;;;3.43;2.10;;;;;22.30;99397.00;;;;4918736;29;20246;-71
2023/09/21 09:06:17;;;;;;;2.50;2.27;;;;;22.40;99398.00;;;;4916802;29;20273;-71
2023/09/21 09:09:05;;;;;;;3.63;2.50;;;;;22.40;99403.00;;;;4916144;29;20719;-72
2023/09/21 09:11:51;;;;;;;3.17;2.40;;;;;22.50;99411.00;;;;4922539;29;20733;-69
2023/09/21 09:14:42;;;;;;;6.63;2.50;;;;;22.80;99392.00;;;;4921576;29;20607;-70
2023/09/21 09:17:30;;;;;;;2.83;2.30;;;;;23.10;99403.00;;;;4923237;29;20230;-70
2023/09/21 09:20:17;;;;;;;4.57;2.17;;;;;23.30;99404.00;;;;4919968;29;20279;-70
2023/09/21 09:23:10;;;;;;;6.33;2.67;;;;;23.30;99408.00;;;;4921462;29;20232;-71
2023/09/21 09:25:56;;;;;;;3.73;2.20;;;;;23.30;99399.00;;;;4922936;29;20309;-71
2023/09/21 09:28:42;;;;;;;5.33;2.20;;;;;23.20;99409.00;;;;4928598;29;20240;-68
2023/09/21 09:31:30;;;;;;;4.37;2.27;;;;;23.20;99405.00;;;;4913315;29;20240;-71
2023/09/21 09:34:18;;;;;;;3.63;2.27;;;;;23.10;99403.00;;;;4917599;29;20365;-71
2023/09/21 09:37:05;;;;;;;2.67;1.97;;;;;23.00;99413.00;;;;4916709;28;20244;-72
2023/09/21 09:39:52;;;;;;;4.23;2.10;;;;;22.90;99421.00;;;;4922932;29;20284;-70
2023/09/21 09:42:41;;;;;;;3.70;2.20;;;;;23.00;99409.00;;;;4922067;29;20228;-73
2023/09/21 09:45:31;;;;;;;6.97;2.13;;;;;23.10;99411.00;;;;4926174;29;20624;-73
2023/09/21 09:48:21;;;;;;;4.60;2.17;;;;;23.30;99402.00;;;;4914884;29;20232;-69
2023/09/21 09:51:11;;;;;;;2.77;2.00;;;;;23.30;99400.00;;;;4920437;29;20240;-71
2023/09/21 09:54:00;;;;;;;3.00;1.87;;;;;23.40;99410.00;;;;4917592;29;20252;-71
2023/09/21 09:56:48;;;;;;;2.17;1.87;;;;;23.40;99408.00;;;;4920236;29;20248;-70
2023/09/21 09:59:35;;;;;;;4.03;2.07;;;;;23.50;99410.00;;;;4922127;28;20236;-70
2023/09/21 10:02:21;;;;;;;3.53;1.83;;;;;23.40;99416.00;;;;4919351;28;20241;-68
2023/09/21 10:05:10;;;;;;;3.57;2.10;;;;;23.30;99410.00;;;;4917639;29;20245;-70
2023/09/21 10:08:00;;;;;;;5.10;1.90;;;;;23.10;99389.00;;;;4923461;29;20228;-70
2023/09/21 10:10:52;;;;;;;2.27;1.90;;;;;23.10;99404.00;;;;4906590;29;20237;-68
2023/09/21 10:13:51;;;;;;;5.83;3.23;;;;;23.30;99412.00;;;;4919436;29;20757;-71
2023/09/21 10:16:39;;;;;;;6.00;2.30;;;;;23.50;99407.00;;;;4927153;29;20255;-71
2023/09/21 10:19:28;;;;;;;5.23;2.00;;;;;23.70;99408.00;;;;4924895;29;20237;-71
2023/09/21 10:22:26;;;;;;;2.10;1.90;;;;;23.60;99409.00;;;;4920023;29;20233;-71
2023/09/21 10:25:15;;;;;;;4.00;2.10;;;;;23.60;99405.00;;;;4919024;28;20252;-70
2023/09/21 10:28:22;;;;;;;3.63;1.90;;;;;23.50;99394.00;;;;4928038;28;21072;-71
2023/09/21 10:31:23;;;;;;;2.50;1.93;;;;;23.50;99399.00;;;;4928657;28;20254;-70
2023/09/21 10:34:14;;;;;;;5.90;2.00;;;;;23.40;99399.00;;;;4924215;29;20603;-71
2023/09/21 10:37:10;;;;;;;2.80;2.20;;;;;23.40;99400.00;;;;4918782;29;20277;-71
2023/09/21 10:40:02;;;;;;;4.37;2.10;;;;;23.40;99401.00;;;;4927997;29;20240;-71
2023/09/21 10:42:49;;;;;;;4.43;2.83;;;;;23.40;99392.00;;;;4919737;29;20341;-70
2023/09/21 10:45:54;;;;;;;5.30;2.93;;;;;23.30;99382.00;;;;4923508;29;20260;-71
2023/09/21 10:48:41;;;;;;;2.47;1.90;;;;;23.40;99393.00;;;;4917853;29;20236;-70
2023/09/21 10:51:28;;;;;;;3.67;1.87;;;;;23.40;99388.00;;;;4926331;29;20233;-70
2023/09/21 10:54:18;;;;;;;4.33;1.83;;;;;23.60;99385.00;;;;4919100;28;20241;-70
2023/09/21 10:57:06;;;;;;;3.83;1.93;;;;;23.90;99385.00;;;;4921152;28;20301;-71
2023/09/21 10:59:53;;;;;;;2.73;2.00;;;;;23.90;99375.00;;;;4921051;29;20228;-70
2023/09/21 11:02:57;;;;;;;3.30;2.10;;;;;23.90;99381.00;;;;4920362;28;20602;-71
2023/09/21 11:05:44;;;;;;;3.50;2.30;;;;;23.90;99381.00;;;;4918463;29;20305;-71
2023/09/21 11:08:31;;;;;;;2.80;2.13;;;;;23.80;99375.00;;;;4919507;29;20333;-71
2023/09/21 11:11:19;;;;;;;2.23;1.87;;;;;23.80;99387.00;;;;4918019;29;20236;-71
2023/09/21 11:14:07;;;;;;;2.70;2.30;;;;;23.70;99379.00;;;;4928450;29;20308;-71
2023/09/21 11:16:53;;;;;;;2.50;1.90;;;;;23.70;99385.00;;;;4922801;29;20325;-70
2023/09/21 11:19:42;;;;;;;4.20;2.00;;;;;23.80;99370.00;;;;4920212;29;20233;-69
2023/09/21 11:22:29;;;;;;;3.43;2.13;;;;;23.70;99373.00;;;;4922414;29;20240;-72
2023/09/21 11:25:20;;;;;;;4.47;2.07;;;;;23.70;99375.00;;;;4923907;29;20316;-72
2023/09/21 11:28:07;;;;;;;2.53;2.00;;;;;23.50;99372.00;;;;4928116;28;20228;-74
2023/09/21 11:30:57;;;;;;;2.20;2.00;;;;;23.60;99370.00;;;;4925696;29;20237;-71
2023/09/21 11:33:43;;;;;;;8.43;2.30;;;;;23.50;99371.00;;;;4917868;28;20240;-74
2023/09/21 11:36:29;;;;;;;5.47;2.13;;;;;23.50;99377.00;;;;4925594;29;20231;-73
2023/09/21 11:39:16;;;;;;;2.97;2.10;;;;;23.40;99373.00;;;;4920561;29;20806;-71
2023/09/21 11:42:04;;;;;;;4.33;1.93;;;;;23.20;99377.00;;;;4918516;29;20892;-74
2023/09/21 11:44:51;;;;;;;2.40;2.10;;;;;23.20;99374.00;;;;4926779;29;20252;-71
2023/09/21 11:47:39;;;;;;;2.40;2.00;;;;;23.10;99381.00;;;;4925340;29;20245;-72
2023/09/21 11:50:27;;;;;;;4.13;2.03;;;;;23.00;99371.00;;;;4925265;28;20234;-71
2023/09/21 11:53:14;;;;;;;4.67;2.20;;;;;23.00;99361.00;;;;4917637;29;20237;-70
2023/09/21 11:56:01;;;;;;;6.73;2.10;;;;;22.90;99364.00;;;;4923682;29;20245;-71
2023/09/21 11:58:47;;;;;;;4.57;2.10;;;;;22.80;99354.00;;;;4923215;28;20269;-71
2023/09/21 12:01:35;;;;;;;2.27;2.03;;;;;22.70;99362.00;;;;4918138;29;20232;-72
2023/09/21 12:04:25;;;;;;;3.60;2.10;;;;;22.70;99355.00;;;;4920655;29;20233;-71
2023/09/21 12:07:11;;;;;;;6.03;2.43;;;;;22.70;99352.00;;;;4923621;29;20755;-72
2023/09/21 12:09:58;;;;;;;3.47;2.20;;;;;22.80;99349.00;;;;4915800;29;20228;-70
2023/09/21 12:12:46;;;;;;;5.23;2.13;;;;;22.80;99350.00;;;;4916347;29;20631;-72
2023/09/21 12:15:34;;;;;;;3.10;2.20;;;;;22.70;99354.00;;;;4916425;29;20737;-68
2023/09/21 12:18:20;;;;;;;3.67;2.10;;;;;22.70;99356.00;;;;4916379;29;20833;-70
2023/09/21 12:21:09;;;;;;;4.57;2.30;;;;;22.80;99345.00;;;;4919005;29;20721;-70
2023/09/21 12:23:56;;;;;;;4.27;2.53;;;;;22.80;99358.00;;;;4922354;28;20260;-69
2023/09/21 12:26:43;;;;;;;3.50;2.50;;;;;22.80;99347.00;;;;4919135;29;20244;-72
2023/09/21 12:29:29;;;;;;;5.90;2.50;;;;;22.80;99345.00;;;;4924684;29;20236;-71
2023/09/21 12:32:16;;;;;;;5.97;2.40;;;;;22.80;99341.00;;;;4913358;28;20237;-71
2023/09/21 12:35:06;;;;;;;4.20;2.10;;;;;22.80;99342.00;;;;4909664;29;20240;-70
2023/09/21 12:37:54;;;;;;;5.77;2.23;;;;;22.80;99331.00;;;;4920254;29;20230;-70
2023/09/21 12:40:40;;;;;;;3.80;2.20;;;;;22.90;99339.00;;;;4917348;29;20240;-71
2023/09/21 12:43:28;;;;;;;3.20;2.27;;;;;22.80;99326.00;;;;4916715;29;20391;-71
2023/09/21 12:46:14;;;;;;;2.97;2.13;;;;;22.90;99326.00;;;;4910802;29;20240;-71
2023/09/21 12:49:01;;;;;;;4.07;2.43;;;;;22.90;99321.00;;;;4923373;29;20365;-71
2023/09/21 12:51:49;;;;;;;4.43;2.30;;;;;22.90;99324.00;;;;4918836;29;20638;-71
2023/09/21 12:54:36;;;;;;;2.87;2.53;;;;;22.90;99304.00;;;;4916403;28;20298;-66
2023/09/21 12:57:23;;;;;;;2.90;2.43;;;;;22.90;99300.00;;;;4915065;29;20225;-70
2023/09/21 13:00:18;;;;;;;3.63;2.30;;;;;22.90;99296.00;;;;4914312;28;20228;-71
2023/09/21 13:03:06;;;;;;;3.03;2.20;;;;;22.90;99300.00;;;;4920537;29;20877;-71
2023/09/21 13:05:52;;;;;;;5.10;2.20;;;;;22.80;99297.00;;;;4918091;29;20244;-71
2023/09/21 13:08:39;;;;;;;4.73;2.60;;;;;22.80;99307.00;;;;4924466;29;20722;-70
2023/09/21 13:11:27;;;;;;;4.50;2.67;;;;;22.80;99284.00;;;;4918975;29;20304;-73
2023/09/21 13:14:13;;;;;;;3.90;2.20;;;;;22.70;99291.00;;;;4915716;29;20229;-71
2023/09/21 13:17:04;;;;;;;2.70;2.37;;;;;22.70;99282.00;;;;4916535;29;20228;-68
2023/09/21 13:19:50;;;;;;;3.53;2.47;;;;;22.60;99282.00;;;;4925579;29;20293;-73
2023/09/21 13:22:37;;;;;;;3.70;2.60;;;;;22.60;99276.00;;;;4925163;29;20248;-70
2023/09/21 13:25:23;;;;;;;2.60;2.30;;;;;22.50;99269.00;;;;4918105;29;20690;-71
2023/09/21 13:28:11;;;;;;;3.20;2.40;;;;;22.50;99263.00;;;;4916322;29;20269;-71
2023/09/21 13:30:57;;;;;;;3.80;2.53;;;;;22.50;99264.00;;;;4926675;29;20221;-71
2023/09/21 13:33:44;;;;;;;2.77;2.43;;;;;22.40;99260.00;;;;4922702;29;20315;-72
2023/09/21 13:36:30;;;;;;;2.70;2.40;;;;;22.40;99258.00;;;;4920147;29;20740;-72
2023/09/21 13:39:18;;;;;;;3.30;2.20;;;;;22.20;99266.00;;;;4911984;28;20281;-70
2023/09/21 13:42:04;;;;;;;5.47;2.70;;;;;22.00;99255.00;;;;4916880;29;20237;-72
2023/09/21 13:44:52;;;;;;;5.83;2.63;;;;;21.90;99247.00;;;;4921380;29;20869;-72
2023/09/21 13:47:39;;;;;;;5.50;3.00;;;;;21.80;99238.00;;;;4926105;29;20312;-71
2023/09/21 13:50:26;;;;;;;3.57;2.90;;;;;21.70;99226.00;;;;4929691;28;20316;-72
2023/09/21 13:53:12;;;;;;;3.87;2.90;;;;;21.70;99219.00;;;;4921129;29;20227;-69
2023/09/21 13:55:58;;;;;;;4.07;2.80;;;;;21.70;99209.00;;;;4927596;29;20291;-71
2023/09/21 13:58:45;;;;;;;5.53;2.97;;;;;21.70;99200.00;;;;4914957;29;20248;-72
2023/09/21 14:01:33;;;;;;;3.17;2.80;;;;;21.80;99199.00;;;;4923729;29;20619;-71